Downstream station:
SHEF ID: TCCO2 Coal Creek at Tulsa, OK
STATION TYPE:
STAGE RIV-FLOW BAT-LOAD
ft cfs volt
Ccp-Rev Ccp-Rev Ccp-Rev
(US/Central)
02/20 00:00 5.14 10 12.57
02/20 01:00 5.14 10 12.57
02/20 02:00 5.14 10 12.57
02/20 03:00 5.14 10 12.57
02/20 04:00 5.13 9 12.49
02/20 05:00 5.13 9 12.49
02/20 06:00 5.12 9 12.49
02/20 07:00 5.11 8 12.49
02/20 08:00 5.12 9 12.57
02/20 09:00 5.11 8 12.97
02/20 10:00 5.11 8 ----
02/20 11:00 5.12 9 13.44
02/20 12:00 5.13 9 13.44
02/20 13:00 5.14 10 13.53
02/20 14:00 5.18 13 13.53
02/20 15:00 5.33 27 13.37
02/20 16:00 5.52 54 13.13
02/20 17:00 5.63 66 12.97
02/20 18:00 5.62 65 12.81
02/20 19:00 5.54 56 12.73
02/20 20:00 5.43 40 12.73
02/20 21:00 ---- ---- ----
02/20 22:00 ---- ---- ----
02/20 23:00 ---- ---- ----